createdAt,value
2016-11-15T00:00:43.943Z,0
2016-11-15T00:01:44.392Z,0
2016-11-15T00:02:45.371Z,0
2016-11-15T00:03:44.903Z,0
2016-11-15T00:04:44.591Z,0
2016-11-15T00:05:44.210Z,0
2016-11-15T00:06:45.417Z,0
2016-11-15T00:07:44.268Z,0
2016-11-15T00:08:44.373Z,0
2016-11-15T00:09:44.590Z,0
2016-11-15T00:10:44.159Z,0
2016-11-15T00:11:44.666Z,0
2016-11-15T00:12:44.824Z,0
2016-11-15T00:13:44.078Z,0
2016-11-15T00:14:44.708Z,0
2016-11-15T00:15:44.072Z,0
2016-11-15T00:16:44.808Z,0
2016-11-15T00:17:44.181Z,0
2016-11-15T00:18:42.539Z,0
2016-11-15T00:19:44.898Z,0
2016-11-15T00:20:44.052Z,0
2016-11-15T00:21:43.670Z,0
2016-11-15T00:22:43.459Z,0
2016-11-15T00:23:44.155Z,0
2016-11-15T00:24:42.866Z,0
2016-11-15T00:25:43.248Z,0
2016-11-15T00:26:43.822Z,0
2016-11-15T00:27:42.808Z,0
2016-11-15T00:28:57.981Z,0
2016-11-15T00:29:42.916Z,0
2016-11-15T00:30:43.775Z,0
2016-11-15T00:31:44.029Z,0
2016-11-15T00:32:43.072Z,0
2016-11-15T00:33:43.831Z,0
2016-11-15T00:34:44.522Z,0
2016-11-15T00:36:43.844Z,0
2016-11-15T00:37:44.332Z,0
2016-11-15T00:38:43.520Z,0
2016-11-15T00:39:42.686Z,0
2016-11-15T00:40:43.334Z,0
2016-11-15T00:41:43.531Z,0
2016-11-15T00:42:41.786Z,0
2016-11-15T00:43:41.744Z,0
2016-11-15T00:44:41.396Z,0
2016-11-15T00:45:41.959Z,0
2016-11-15T00:46:41.613Z,0
2016-11-15T00:47:41.880Z,0
2016-11-15T00:48:41.541Z,0
2016-11-15T00:49:41.491Z,0
2016-11-15T00:50:41.454Z,0
2016-11-15T00:51:41.404Z,0
2016-11-15T00:52:41.365Z,0
2016-11-15T00:53:41.631Z,0
2016-11-15T00:54:41.282Z,0
2016-11-15T00:55:40.940Z,0
2016-11-15T00:56:41.507Z,0
2016-11-15T00:57:40.863Z,0
2016-11-15T00:58:41.115Z,0
2016-11-15T00:59:40.774Z,0
2016-11-15T01:00:41.347Z,0
2016-11-15T01:01:41.305Z,0
2016-11-15T01:02:41.256Z,0
2016-11-15T01:03:41.211Z,0
2016-11-15T01:04:41.173Z,0
2016-11-15T01:05:41.131Z,0
2016-11-15T01:06:40.483Z,0
2016-11-15T01:07:40.743Z,0
2016-11-15T01:08:41.012Z,0
2016-11-15T01:09:40.363Z,0
2016-11-15T01:10:40.623Z,0
2016-11-15T01:11:40.879Z,0
2016-11-15T01:12:40.231Z,0
2016-11-15T01:13:40.496Z,0
2016-11-15T01:14:40.455Z,0
2016-11-15T01:15:40.711Z,0
2016-11-15T01:16:40.069Z,0
2016-11-15T01:17:40.329Z,0
2016-11-15T01:18:39.679Z,0
2016-11-15T01:19:40.546Z,0
2016-11-15T01:20:40.506Z,0
2016-11-15T01:21:40.181Z,0
2016-11-15T01:22:40.121Z,0
2016-11-15T01:23:39.779Z,0
2016-11-15T01:24:40.035Z,0
2016-11-15T01:25:40.296Z,0
2016-11-15T01:26:40.258Z,0
2016-11-15T01:27:39.914Z,0
2016-11-15T01:28:39.872Z,0
2016-11-15T01:29:39.836Z,0
2016-11-15T01:30:40.095Z,0
2016-11-15T01:31:40.047Z,0
2016-11-15T01:32:39.410Z,0
2016-11-15T01:33:39.357Z,0
2016-11-15T01:34:39.923Z,0
2016-11-15T01:35:39.581Z,0
2016-11-15T01:36:39.842Z,0
2016-11-15T01:37:39.503Z,0
2016-11-15T01:38:39.754Z,0
2016-11-15T01:39:39.717Z,0
2016-11-15T01:40:39.671Z,0
2016-11-15T01:41:39.635Z,0
2016-11-15T01:42:39.588Z,0
2016-11-15T01:43:39.546Z,0
2016-11-15T01:44:39.508Z,0
2016-11-15T01:45:39.464Z,0
2016-11-15T01:46:39.124Z,0
2016-11-15T01:47:39.085Z,0
2016-11-15T01:48:39.339Z,0
2016-11-15T01:49:39.299Z,0
2016-11-15T01:50:39.262Z,0
2016-11-15T01:51:39.263Z,0
2016-11-15T01:52:39.176Z,0
2016-11-15T01:53:39.133Z,0
2016-11-15T01:54:38.794Z,0
2016-11-15T01:55:38.748Z,0
2016-11-15T01:56:38.410Z,0
2016-11-15T01:57:39.003Z,0
2016-11-15T01:58:38.626Z,0
2016-11-15T01:59:38.586Z,0
2016-11-15T02:00:38.861Z,0
2016-11-15T02:01:38.197Z,0
2016-11-15T02:02:38.458Z,0
2016-11-15T02:03:38.417Z,0
2016-11-15T02:04:38.681Z,0
2016-11-15T02:05:38.638Z,0
2016-11-15T02:06:38.595Z,0
2016-11-15T02:07:38.583Z,0
2016-11-15T02:08:37.910Z,0
2016-11-15T02:09:38.169Z,0
2016-11-15T02:10:38.133Z,0
2016-11-15T02:11:38.087Z,0
2016-11-15T02:12:38.047Z,0
2016-11-15T02:13:38.311Z,0
2016-11-15T02:14:38.273Z,0
2016-11-15T02:15:38.222Z,0
2016-11-15T02:16:38.184Z,0
2016-11-15T02:17:37.836Z,0
2016-11-15T02:18:38.103Z,0
2016-11-15T02:19:38.059Z,0
2016-11-15T02:20:37.718Z,0
2016-11-15T02:21:37.972Z,0
2016-11-15T02:22:37.630Z,0
2016-11-15T02:23:37.590Z,0
2016-11-15T02:24:37.854Z,0
2016-11-15T02:25:37.811Z,0
2016-11-15T02:26:37.769Z,0
2016-11-15T02:27:37.422Z,0
2016-11-15T02:28:37.379Z,0
2016-11-15T02:29:37.331Z,0
2016-11-15T02:30:37.296Z,0
2016-11-15T02:31:37.570Z,0
2016-11-15T02:32:37.214Z,0
2016-11-15T02:33:37.478Z,0
2016-11-15T02:34:37.132Z,0
2016-11-15T02:35:36.785Z,0
2016-11-15T02:36:37.347Z,0
2016-11-15T02:37:37.004Z,0
2016-11-15T02:38:37.267Z,0
2016-11-15T02:39:36.921Z,0
2016-11-15T02:40:37.187Z,0
2016-11-15T02:41:37.140Z,0
2016-11-15T02:42:36.798Z,0
2016-11-15T02:43:37.055Z,0
2016-11-15T02:44:36.716Z,0
2016-11-15T02:45:36.384Z,0
2016-11-15T02:46:36.938Z,0
2016-11-15T02:47:36.932Z,0
2016-11-15T02:48:36.867Z,0
2016-11-15T02:49:36.506Z,0
2016-11-15T02:50:36.475Z,0
2016-11-15T02:51:36.730Z,0
2016-11-15T02:52:36.382Z,0
2016-11-15T02:53:36.643Z,0
2016-11-15T02:54:36.295Z,0
2016-11-15T02:55:36.254Z,0
2016-11-15T02:56:36.216Z,0
2016-11-15T02:57:36.477Z,0
2016-11-15T02:58:36.430Z,0
2016-11-15T02:59:36.389Z,0
2016-11-15T03:00:36.353Z,0
2016-11-15T03:01:36.315Z,0
2016-11-15T03:02:35.969Z,0
2016-11-15T03:03:35.620Z,0
2016-11-15T03:04:36.188Z,0
2016-11-15T03:05:36.147Z,0
2016-11-15T03:06:36.102Z,0
2016-11-15T03:07:35.762Z,0
2016-11-15T03:08:36.020Z,0
2016-11-15T03:09:35.379Z,0
2016-11-15T03:10:35.335Z,0
2016-11-15T03:11:35.889Z,0
2016-11-15T03:12:35.858Z,0
2016-11-15T03:13:35.508Z,0
2016-11-15T03:14:35.776Z,0
2016-11-15T03:15:35.427Z,0
2016-11-15T03:16:35.716Z,0
2016-11-15T03:17:35.381Z,0
2016-11-15T03:18:35.306Z,0
2016-11-15T03:19:35.564Z,0
2016-11-15T03:20:35.217Z,0
2016-11-15T03:21:35.510Z,0
2016-11-15T03:22:35.442Z,0
2016-11-15T03:23:35.091Z,0
2016-11-15T03:24:35.393Z,0
2016-11-15T03:25:35.316Z,0
2016-11-15T03:26:34.667Z,0
2016-11-15T03:27:35.231Z,0
2016-11-15T03:28:35.265Z,0
2016-11-15T03:29:35.203Z,0
2016-11-15T03:30:35.113Z,0
2016-11-15T03:31:34.762Z,0
2016-11-15T03:32:34.723Z,0
2016-11-15T03:33:34.680Z,0
2016-11-15T03:34:34.938Z,0
2016-11-15T03:35:34.898Z,0
2016-11-15T03:36:34.559Z,0
2016-11-15T03:37:34.518Z,0
2016-11-15T03:38:34.775Z,0
2016-11-15T03:39:34.129Z,0
2016-11-15T03:40:34.385Z,0
2016-11-15T03:41:34.345Z,0
2016-11-15T03:42:34.316Z,0
2016-11-15T03:43:34.298Z,0
2016-11-15T03:44:34.220Z,0
2016-11-15T03:45:34.484Z,0
2016-11-15T03:46:34.138Z,0
2016-11-15T03:47:34.109Z,0
2016-11-15T03:48:34.363Z,0
2016-11-15T03:49:34.318Z,0
2016-11-15T03:50:33.979Z,0
2016-11-15T03:51:33.332Z,0
2016-11-15T03:52:34.194Z,0
2016-11-15T03:53:33.552Z,0
2016-11-15T03:54:34.109Z,0
2016-11-15T03:55:33.767Z,0
2016-11-15T03:56:33.424Z,0
2016-11-15T03:57:33.687Z,0
2016-11-15T03:58:33.648Z,0
2016-11-15T03:59:33.320Z,0
2016-11-15T04:00:33.864Z,0
2016-11-15T04:01:33.829Z,0
2016-11-15T04:02:33.472Z,0
2016-11-15T04:03:33.779Z,0
2016-11-15T04:04:33.396Z,0
2016-11-15T04:05:33.656Z,0
2016-11-15T04:06:33.317Z,0
2016-11-15T04:07:33.274Z,0
2016-11-15T04:08:33.526Z,0
2016-11-15T04:09:33.493Z,0
2016-11-15T04:10:32.876Z,0
2016-11-15T04:11:32.802Z,0
2016-11-15T04:12:33.078Z,0
2016-11-15T04:13:32.721Z,0
2016-11-15T04:14:33.280Z,0
2016-11-15T04:15:33.242Z,0
2016-11-15T04:16:33.198Z,0
2016-11-15T04:17:32.553Z,0
2016-11-15T04:18:32.852Z,0
2016-11-15T04:19:32.783Z,0
2016-11-15T04:20:32.734Z,0
2016-11-15T04:21:32.693Z,0
2016-11-15T04:22:32.646Z,0
2016-11-15T04:23:32.614Z,0
2016-11-15T04:24:32.866Z,0
2016-11-15T04:25:32.522Z,0
2016-11-15T04:26:32.489Z,0
2016-11-15T04:27:32.773Z,0
2016-11-15T04:28:32.700Z,0
2016-11-15T04:29:32.356Z,0
2016-11-15T04:30:32.623Z,0
2016-11-15T04:31:32.275Z,0
2016-11-15T04:32:32.533Z,0
2016-11-15T04:33:32.193Z,0
2016-11-15T04:34:32.157Z,0
2016-11-15T04:35:32.414Z,0
2016-11-15T04:36:32.067Z,0
2016-11-15T04:37:32.329Z,0
2016-11-15T04:38:32.289Z,0
2016-11-15T04:39:31.947Z,0
2016-11-15T04:40:32.203Z,0
2016-11-15T04:41:31.882Z,0
2016-11-15T04:42:32.125Z,0
2016-11-15T04:43:31.477Z,0
2016-11-15T04:44:32.038Z,0
2016-11-15T04:45:31.997Z,0
2016-11-15T04:46:31.656Z,0
2016-11-15T04:47:31.921Z,0
2016-11-15T04:48:31.877Z,0
2016-11-15T04:49:31.836Z,0
2016-11-15T04:50:31.495Z,0
2016-11-15T04:51:31.453Z,0
2016-11-15T04:52:31.710Z,0
2016-11-15T04:53:31.378Z,0
2016-11-15T04:54:31.325Z,0
2016-11-15T04:55:31.285Z,0
2016-11-15T04:56:31.238Z,0
2016-11-15T04:57:31.507Z,0
2016-11-15T04:58:31.159Z,0
2016-11-15T04:59:31.114Z,0
2016-11-15T05:00:31.077Z,0
2016-11-15T05:01:31.338Z,0
2016-11-15T05:02:30.993Z,0
2016-11-15T05:03:31.255Z,0
2016-11-15T05:04:31.216Z,0
2016-11-15T05:05:31.215Z,0
2016-11-15T05:06:30.858Z,0
2016-11-15T05:07:31.085Z,0
2016-11-15T05:08:31.084Z,0
2016-11-15T05:09:30.701Z,0
2016-11-15T05:10:30.974Z,0
2016-11-15T05:11:30.626Z,0
2016-11-15T05:12:30.882Z,0
2016-11-15T05:13:30.837Z,0
2016-11-15T05:14:30.808Z,0
2016-11-15T05:15:30.460Z,0
2016-11-15T05:16:30.126Z,0
2016-11-15T05:17:30.073Z,0
2016-11-15T05:18:30.331Z,0
2016-11-15T05:19:30.290Z,0
2016-11-15T05:20:30.592Z,0
2016-11-15T05:21:30.214Z,0
2016-11-15T05:22:29.860Z,0
2016-11-15T05:23:30.138Z,0
2016-11-15T05:24:29.787Z,0
2016-11-15T05:25:29.441Z,0
2016-11-15T05:26:29.999Z,0
2016-11-15T05:27:29.963Z,0
2016-11-15T05:28:30.223Z,0
2016-11-15T05:29:29.579Z,0
2016-11-15T05:30:29.536Z,0
2016-11-15T05:31:29.799Z,0
2016-11-15T05:32:30.078Z,0
2016-11-15T05:33:29.706Z,0
2016-11-15T05:34:29.977Z,0
2016-11-15T05:35:29.927Z,0
2016-11-15T05:36:29.889Z,0
2016-11-15T05:37:29.848Z,0
2016-11-15T05:38:29.201Z,0
2016-11-15T05:39:29.771Z,0
2016-11-15T05:40:29.737Z,0
2016-11-15T05:41:29.381Z,0
2016-11-15T05:42:29.638Z,0
2016-11-15T05:43:29.304Z,0
2016-11-15T05:44:29.562Z,0
2016-11-15T05:45:29.220Z,0
2016-11-15T05:46:29.478Z,0
2016-11-15T05:47:29.136Z,0
2016-11-15T05:48:28.790Z,0
2016-11-15T05:49:29.351Z,0
2016-11-15T05:50:29.313Z,0
2016-11-15T05:51:29.300Z,0
2016-11-15T05:52:28.626Z,0
2016-11-15T05:53:29.187Z,0
2016-11-15T05:54:29.155Z,0
2016-11-15T05:55:28.806Z,0
2016-11-15T05:56:28.765Z,4
2016-11-15T05:57:29.022Z,0
2016-11-15T05:58:28.980Z,0
2016-11-15T05:59:28.943Z,4
2016-11-15T06:00:28.597Z,0
2016-11-15T06:01:28.558Z,4
2016-11-15T06:02:28.509Z,4
2016-11-15T06:03:28.170Z,8
2016-11-15T06:04:28.431Z,8
2016-11-15T06:05:28.388Z,8
2016-11-15T06:06:28.045Z,8
2016-11-15T06:07:28.302Z,12
2016-11-15T06:08:28.265Z,12
2016-11-15T06:09:27.929Z,16
2016-11-15T06:10:28.494Z,16
2016-11-15T06:11:28.441Z,20
2016-11-15T06:12:28.408Z,24
2016-11-15T06:13:28.363Z,28
2016-11-15T06:14:28.319Z,32
2016-11-15T06:15:27.984Z,40
2016-11-15T06:16:28.345Z,48
2016-11-15T06:17:27.905Z,56
2016-11-15T06:18:27.548Z,64
2016-11-15T06:19:27.807Z,72
2016-11-15T06:20:27.764Z,80
2016-11-15T06:21:28.030Z,84
2016-11-15T06:22:27.683Z,92
2016-11-15T06:23:27.646Z,100
2016-11-15T06:24:27.602Z,104
2016-11-15T06:25:27.883Z,108
2016-11-15T06:26:27.516Z,112
2016-11-15T06:27:27.478Z,124
2016-11-15T06:28:27.434Z,132
2016-11-15T06:29:27.390Z,144
2016-11-15T06:30:27.354Z,152
2016-11-15T06:31:27.618Z,164
2016-11-15T06:32:27.569Z,176
2016-11-15T06:33:27.532Z,180
2016-11-15T06:34:27.493Z,196
2016-11-15T06:35:27.150Z,220
2016-11-15T06:36:26.804Z,240
2016-11-15T06:37:27.064Z,244
2016-11-15T06:38:27.018Z,240
2016-11-15T06:39:26.978Z,240
2016-11-15T06:40:26.649Z,244
2016-11-15T06:41:27.200Z,260
2016-11-15T06:42:27.160Z,268
2016-11-15T06:43:26.817Z,280
2016-11-15T06:44:27.071Z,300
2016-11-15T06:45:26.736Z,328
2016-11-15T06:46:26.995Z,348
2016-11-15T06:47:26.649Z,356
2016-11-15T06:48:26.609Z,376
2016-11-15T06:49:26.567Z,408
2016-11-15T06:50:26.521Z,420
2016-11-15T06:51:26.797Z,424
2016-11-15T06:52:26.742Z,452
2016-11-15T06:53:26.707Z,496
2016-11-15T06:54:26.058Z,524
2016-11-15T06:55:26.322Z,544
2016-11-15T06:56:26.578Z,572
2016-11-15T06:57:26.274Z,620
2016-11-15T06:58:26.496Z,636
2016-11-15T06:59:25.554Z,652
2016-11-15T07:00:26.115Z,676
2016-11-15T07:01:26.370Z,680
2016-11-15T07:02:25.755Z,692
2016-11-15T07:03:26.292Z,744
2016-11-15T07:04:26.248Z,752
2016-11-15T07:05:25.602Z,760
2016-11-15T07:06:26.169Z,780
2016-11-15T07:07:25.817Z,788
2016-11-15T07:08:26.079Z,812
2016-11-15T07:09:25.746Z,840
2016-11-15T07:10:25.696Z,892
2016-11-15T07:11:25.969Z,916
2016-11-15T07:12:25.913Z,920
2016-11-15T07:13:25.876Z,920
2016-11-15T07:14:25.532Z,972
2016-11-15T07:15:25.492Z,1004
2016-11-15T07:16:25.452Z,1040
2016-11-15T07:17:25.411Z,1056
2016-11-15T07:18:25.362Z,1064
2016-11-15T07:19:24.721Z,1080
2016-11-15T07:20:25.584Z,1112
2016-11-15T07:21:25.242Z,1132
2016-11-15T07:22:24.896Z,1148
2016-11-15T07:23:24.584Z,1168
2016-11-15T07:24:25.117Z,1268
2016-11-15T07:25:25.073Z,1316
2016-11-15T07:26:24.428Z,1368
2016-11-15T07:27:25.001Z,1420
2016-11-15T07:28:24.657Z,1472
2016-11-15T07:29:24.945Z,1540
2016-11-15T07:30:24.868Z,1628
2016-11-15T07:31:24.528Z,1668
2016-11-15T07:32:25.090Z,1692
2016-11-15T07:33:24.749Z,1724
2016-11-15T07:34:25.008Z,1804
2016-11-15T07:35:24.666Z,1900
2016-11-15T07:36:24.926Z,1964
2016-11-15T07:37:24.878Z,2036
2016-11-15T07:38:24.868Z,2124
2016-11-15T07:39:24.793Z,2196
2016-11-15T07:40:25.158Z,2268
2016-11-15T07:41:24.723Z,2348
2016-11-15T07:42:24.070Z,2436
2016-11-15T07:43:24.332Z,2532
2016-11-15T07:44:24.587Z,2612
2016-11-15T07:45:24.563Z,2692
2016-11-15T07:46:23.905Z,2832
2016-11-15T07:47:24.167Z,3020
2016-11-15T07:48:24.128Z,3200
2016-11-15T07:49:24.392Z,3460
2016-11-15T07:50:24.352Z,3716
2016-11-15T07:51:24.307Z,4052
2016-11-15T07:52:23.671Z,4388
2016-11-15T07:53:24.226Z,4620
2016-11-15T07:54:23.581Z,4792
2016-11-15T07:55:24.143Z,4832
2016-11-15T07:56:24.119Z,4904
2016-11-15T07:57:23.764Z,5140
2016-11-15T07:58:24.026Z,5600
2016-11-15T07:59:23.994Z,6116
2016-11-15T08:00:23.642Z,6836
2016-11-15T08:01:23.596Z,7468
2016-11-15T08:02:23.857Z,8188
2016-11-15T08:03:23.824Z,8544
2016-11-15T08:04:23.486Z,8448
2016-11-15T08:05:23.435Z,8452
2016-11-15T08:06:23.697Z,8496
2016-11-15T08:07:23.662Z,8832
2016-11-15T08:08:23.014Z,9512
2016-11-15T08:09:23.280Z,10180
2016-11-15T08:10:23.535Z,10712
2016-11-15T08:11:23.197Z,11328
2016-11-15T08:12:23.460Z,12200
2016-11-15T08:13:23.426Z,12756
2016-11-15T08:14:23.080Z,14028
2016-11-15T08:15:23.338Z,16672
2016-11-15T08:16:22.995Z,18208
2016-11-15T08:17:22.960Z,19616
2016-11-15T08:18:22.618Z,24736
2016-11-15T08:19:22.880Z,32256
2016-11-15T08:20:22.867Z,36064
2016-11-15T08:21:22.803Z,36416
2016-11-15T08:22:22.759Z,37280
2016-11-15T08:23:22.728Z,37760
2016-11-15T08:24:22.996Z,35648
2016-11-15T08:25:22.949Z,20096
2016-11-15T08:26:22.920Z,16608
2016-11-15T08:27:22.880Z,16192
2016-11-15T08:28:22.546Z,16992
2016-11-15T08:29:22.500Z,12508
2016-11-15T08:30:22.461Z,10880
2016-11-15T08:31:22.729Z,11772
2016-11-15T08:32:22.386Z,12216
2016-11-15T08:33:22.351Z,12772
2016-11-15T08:34:22.620Z,12456
2016-11-15T08:35:22.587Z,12076
2016-11-15T08:36:22.250Z,12620
2016-11-15T08:37:21.905Z,12916
2016-11-15T08:38:22.171Z,15872
2016-11-15T08:39:22.439Z,13092
2016-11-15T08:40:22.407Z,11944
2016-11-15T08:41:22.065Z,10604
2016-11-15T08:42:22.334Z,10216
2016-11-15T08:43:21.996Z,9948
2016-11-15T08:44:21.967Z,9812
2016-11-15T08:45:21.932Z,9764
2016-11-15T08:46:21.886Z,9384
2016-11-15T08:47:22.162Z,8592
2016-11-15T08:48:22.117Z,7588
2016-11-15T08:49:21.776Z,7192
2016-11-15T08:50:22.043Z,7384
2016-11-15T08:51:21.405Z,7604
2016-11-15T08:52:21.978Z,8036
2016-11-15T08:53:21.929Z,8392
2016-11-15T08:54:21.896Z,7924
2016-11-15T08:55:21.564Z,8064
2016-11-15T08:56:21.815Z,8092
2016-11-15T08:57:21.483Z,7980
2016-11-15T08:58:21.443Z,7504
2016-11-15T08:59:21.705Z,7624
2016-11-15T09:00:21.673Z,7860
2016-11-15T09:01:21.334Z,8108
2016-11-15T09:02:21.286Z,8760
2016-11-15T09:03:21.251Z,8704
2016-11-15T09:04:21.341Z,8840
2016-11-15T09:05:21.500Z,10004
2016-11-15T09:06:21.445Z,12228
2016-11-15T09:07:21.104Z,12592
2016-11-15T09:08:21.371Z,16188
2016-11-15T09:09:21.335Z,23104
2016-11-15T09:10:20.995Z,17504
2016-11-15T09:11:20.960Z,21120
2016-11-15T09:12:21.216Z,17792
2016-11-15T09:13:21.176Z,26336
2016-11-15T09:14:20.834Z,20000
2016-11-15T09:15:20.506Z,20512
2016-11-15T09:16:21.065Z,19488
2016-11-15T09:17:21.035Z,18432
2016-11-15T09:18:20.396Z,16672
2016-11-15T09:19:20.655Z,15600
2016-11-15T09:20:20.931Z,17152
2016-11-15T09:21:20.578Z,33600
2016-11-15T09:22:20.540Z,14804
2016-11-15T09:23:20.200Z,15240
2016-11-15T09:24:20.475Z,13400
2016-11-15T09:25:20.437Z,12460
2016-11-15T09:26:20.695Z,12128
2016-11-15T09:27:20.363Z,12548
2016-11-15T09:28:20.618Z,14892
2016-11-15T09:29:20.283Z,12952
2016-11-15T09:30:20.555Z,12512
2016-11-15T09:31:20.214Z,11544
2016-11-15T09:32:20.180Z,11548
2016-11-15T09:33:20.444Z,11920
2016-11-15T09:34:19.802Z,11724
2016-11-15T09:35:20.065Z,11124
2016-11-15T09:36:20.026Z,11172
2016-11-15T09:37:20.293Z,11624
2016-11-15T09:38:19.982Z,13756
2016-11-15T09:39:20.219Z,14392
2016-11-15T09:40:19.900Z,13964
2016-11-15T09:41:20.149Z,15820
2016-11-15T09:42:19.807Z,18432
2016-11-15T09:43:19.775Z,27744
2016-11-15T09:44:20.542Z,41088
2016-11-15T09:45:19.400Z,27872
2016-11-15T09:46:19.960Z,55200
2016-11-15T09:47:19.628Z,60992
2016-11-15T09:48:19.587Z,33760
2016-11-15T09:49:19.853Z,36960
2016-11-15T09:50:19.521Z,25536
2016-11-15T09:51:19.479Z,17824
2016-11-15T09:52:19.760Z,14252
2016-11-15T09:53:19.717Z,12572
2016-11-15T09:54:19.381Z,11960
2016-11-15T09:55:19.653Z,10692
2016-11-15T09:56:19.615Z,10020
2016-11-15T09:57:19.578Z,9808
2016-11-15T09:58:18.943Z,9464
2016-11-15T09:59:19.514Z,9368
2016-11-15T10:00:19.474Z,9536
2016-11-15T10:01:19.450Z,9784
2016-11-15T10:02:19.408Z,9860
2016-11-15T10:03:19.069Z,9840
2016-11-15T10:04:18.732Z,9856
2016-11-15T10:05:19.002Z,10136
2016-11-15T10:06:18.980Z,10508
2016-11-15T10:07:18.975Z,10912
2016-11-15T10:08:18.893Z,11528
2016-11-15T10:09:18.860Z,12148
2016-11-15T10:10:18.527Z,12668
2016-11-15T10:11:19.105Z,13300
2016-11-15T10:12:18.759Z,14432
2016-11-15T10:13:18.721Z,14820
2016-11-15T10:14:18.687Z,17248
2016-11-15T10:15:18.656Z,23936
2016-11-15T10:16:18.621Z,25120
2016-11-15T10:17:18.580Z,26656
2016-11-15T10:18:18.844Z,23808
2016-11-15T10:19:18.808Z,22816
2016-11-15T10:20:18.783Z,27456
2016-11-15T10:21:18.737Z,32448
2016-11-15T10:22:18.412Z,35488
2016-11-15T10:23:18.703Z,31040
2016-11-15T10:24:18.335Z,26880
2016-11-15T10:25:18.300Z,30816
2016-11-15T10:26:18.588Z,23168
2016-11-15T10:27:18.240Z,21728
2016-11-15T10:28:18.498Z,18944
2016-11-15T10:29:18.469Z,16960
2016-11-15T10:30:17.837Z,15984
2016-11-15T10:31:18.100Z,15336
2016-11-15T10:32:18.371Z,15136
2016-11-15T10:33:18.035Z,15124
2016-11-15T10:34:17.700Z,15176
2016-11-15T10:35:18.269Z,15032
2016-11-15T10:36:18.241Z,14964
2016-11-15T10:37:17.912Z,14700
2016-11-15T10:38:18.174Z,14568
2016-11-15T10:39:18.142Z,14512
2016-11-15T10:40:17.806Z,14768
2016-11-15T10:41:18.072Z,14564
2016-11-15T10:42:18.038Z,14640
2016-11-15T10:43:17.705Z,14476
2016-11-15T10:44:17.366Z,14460
2016-11-15T10:45:17.635Z,14356
2016-11-15T10:46:17.902Z,13696
2016-11-15T10:47:17.568Z,13460
2016-11-15T10:48:17.844Z,13256
2016-11-15T10:49:17.801Z,12692
2016-11-15T10:50:17.462Z,12124
2016-11-15T10:51:17.739Z,11868
2016-11-15T10:52:17.094Z,11932
2016-11-15T10:53:17.663Z,12216
2016-11-15T10:54:17.060Z,12292
2016-11-15T10:55:17.595Z,12520
2016-11-15T10:56:16.952Z,12204
2016-11-15T10:57:17.225Z,12216
2016-11-15T10:58:17.188Z,12256
2016-11-15T10:59:16.851Z,12184
2016-11-15T11:00:16.814Z,11988
2016-11-15T11:01:17.383Z,11780
2016-11-15T11:02:17.347Z,11424
2016-11-15T11:03:17.315Z,10976
2016-11-15T11:04:16.976Z,10620
2016-11-15T11:05:16.645Z,10196
2016-11-15T11:06:16.606Z,9800
2016-11-15T11:07:16.875Z,9432
2016-11-15T11:08:17.134Z,9156
2016-11-15T11:09:16.801Z,8960
2016-11-15T11:10:17.067Z,8756
2016-11-15T11:11:16.123Z,8636
2016-11-15T11:12:17.001Z,8576
2016-11-15T11:13:16.967Z,8508
2016-11-15T11:14:16.321Z,8424
2016-11-15T11:15:16.586Z,8276
2016-11-15T11:16:16.560Z,8212
2016-11-15T11:17:16.515Z,8168
2016-11-15T11:18:16.782Z,8200
2016-11-15T11:19:16.136Z,8308
2016-11-15T11:20:16.706Z,8456
2016-11-15T11:21:16.080Z,8556
2016-11-15T11:22:16.633Z,8704
2016-11-15T11:23:16.302Z,8836
2016-11-15T11:24:16.570Z,8992
2016-11-15T11:25:15.919Z,9116
2016-11-15T11:26:16.488Z,9120
2016-11-15T11:27:15.845Z,9056
2016-11-15T11:28:16.414Z,8920
2016-11-15T11:29:16.075Z,8704
2016-11-15T11:30:16.371Z,8564
2016-11-15T11:31:16.318Z,8732
2016-11-15T11:32:15.668Z,9148
2016-11-15T11:33:16.227Z,9824
2016-11-15T11:34:16.196Z,10588
2016-11-15T11:35:16.164Z,11268
2016-11-15T11:36:15.819Z,11724
2016-11-15T11:37:15.780Z,11844
2016-11-15T11:38:15.744Z,11584
2016-11-15T11:39:15.708Z,11204
2016-11-15T11:40:15.672Z,10964
2016-11-15T11:41:15.940Z,10856
2016-11-15T11:42:15.297Z,10776
2016-11-15T11:43:15.859Z,10632
2016-11-15T11:44:15.827Z,10440
2016-11-15T11:45:15.786Z,10344
2016-11-15T11:46:15.459Z,10296
2016-11-15T11:47:14.809Z,10100
2016-11-15T11:48:15.404Z,9872
2016-11-15T11:49:15.339Z,9740
2016-11-15T11:50:15.302Z,9824
2016-11-15T11:51:15.570Z,10100
2016-11-15T11:52:15.540Z,10308
2016-11-15T11:53:15.496Z,10156
2016-11-15T11:54:15.162Z,9796
2016-11-15T11:55:15.422Z,9360
2016-11-15T11:56:15.096Z,8928
2016-11-15T11:57:15.351Z,8604
2016-11-15T11:58:15.009Z,8488
2016-11-15T11:59:15.274Z,8684
2016-11-15T12:00:15.236Z,9180
2016-11-15T12:01:15.204Z,9704
2016-11-15T12:02:14.857Z,10100
2016-11-15T12:03:15.133Z,10256
2016-11-15T12:04:14.497Z,10156
2016-11-15T12:05:15.057Z,9780
2016-11-15T12:06:14.720Z,9364
2016-11-15T12:07:14.987Z,8992
2016-11-15T12:08:14.948Z,8764
2016-11-15T12:09:14.614Z,8696
2016-11-15T12:10:14.870Z,8752
2016-11-15T12:11:14.834Z,8796
2016-11-15T12:12:14.494Z,8796
2016-11-15T12:13:14.765Z,8988
2016-11-15T12:14:14.725Z,9480
2016-11-15T12:15:14.387Z,10064
2016-11-15T12:16:14.349Z,10420
2016-11-15T12:17:14.316Z,10600
2016-11-15T12:18:14.571Z,10524
2016-11-15T12:19:14.544Z,10296
2016-11-15T12:20:13.896Z,9960
2016-11-15T12:21:14.464Z,9492
2016-11-15T12:22:14.435Z,9028
2016-11-15T12:23:14.090Z,8428
2016-11-15T12:24:14.354Z,7700
2016-11-15T12:25:14.018Z,7028
2016-11-15T12:26:13.980Z,6596
2016-11-15T12:27:13.938Z,6468
2016-11-15T12:28:14.213Z,6696
2016-11-15T12:29:13.868Z,7248
2016-11-15T12:30:13.839Z,8024
2016-11-15T12:31:14.094Z,8612
2016-11-15T12:32:14.060Z,9092
2016-11-15T12:33:14.023Z,9584
2016-11-15T12:34:13.987Z,10112
2016-11-15T12:35:13.949Z,10512
2016-11-15T12:36:14.287Z,10608
2016-11-15T12:37:13.578Z,10372
2016-11-15T12:38:13.839Z,9888
2016-11-15T12:39:13.803Z,9388
2016-11-15T12:40:13.162Z,8820
2016-11-15T12:41:13.132Z,8256
2016-11-15T12:42:13.403Z,7800
2016-11-15T12:43:13.649Z,7444
2016-11-15T12:44:13.628Z,7128
2016-11-15T12:45:13.282Z,6764
2016-11-15T12:46:13.545Z,6392
2016-11-15T12:47:13.917Z,6056
2016-11-15T12:48:13.467Z,5752
2016-11-15T12:49:13.434Z,5432
2016-11-15T12:50:13.405Z,5160
2016-11-15T12:51:13.413Z,4996
2016-11-15T12:52:13.016Z,4956
2016-11-15T12:53:12.991Z,4932
2016-11-15T12:54:13.251Z,4856
2016-11-15T12:55:13.242Z,4740
2016-11-15T12:56:13.177Z,4656
2016-11-15T12:57:13.133Z,4584
2016-11-15T12:58:13.100Z,4532
2016-11-15T12:59:12.463Z,4424
2016-11-15T13:00:12.740Z,4320
2016-11-15T13:01:12.985Z,4324
2016-11-15T13:02:12.649Z,4664
2016-11-15T13:03:12.607Z,4784
2016-11-15T13:04:12.265Z,5100
2016-11-15T13:05:12.533Z,5420
2016-11-15T13:06:12.495Z,5428
2016-11-15T13:07:12.151Z,5304
2016-11-15T13:08:12.719Z,5220
2016-11-15T13:09:12.117Z,5120
2016-11-15T13:10:12.405Z,5004
2016-11-15T13:11:12.309Z,5092
2016-11-15T13:12:12.566Z,5656
2016-11-15T13:13:12.234Z,6620
2016-11-15T13:14:12.499Z,7548
2016-11-15T13:15:12.156Z,8132
2016-11-15T13:16:12.418Z,8332
2016-11-15T13:17:12.074Z,8120
2016-11-15T13:18:12.341Z,7640
2016-11-15T13:19:12.002Z,7224
2016-11-15T13:20:12.260Z,6856
2016-11-15T13:21:12.223Z,6572
2016-11-15T13:22:11.583Z,6308
2016-11-15T13:23:12.146Z,6012
2016-11-15T13:24:12.119Z,5700
2016-11-15T13:25:11.778Z,5496
2016-11-15T13:26:11.735Z,5408
2016-11-15T13:27:11.691Z,5500
2016-11-15T13:28:11.361Z,5624
2016-11-15T13:29:11.916Z,5696
2016-11-15T13:30:11.579Z,5656
2016-11-15T13:31:10.939Z,5512
2016-11-15T13:32:11.501Z,5316
2016-11-15T13:33:11.766Z,5184
2016-11-15T13:34:11.425Z,5056
2016-11-15T13:35:11.390Z,4960
2016-11-15T13:36:11.649Z,4948
2016-11-15T13:37:11.311Z,5004
2016-11-15T13:38:11.577Z,5004
2016-11-15T13:39:11.536Z,4908
2016-11-15T13:40:11.497Z,4704
2016-11-15T13:41:11.157Z,4488
2016-11-15T13:42:11.118Z,4300
2016-11-15T13:43:11.083Z,4144
2016-11-15T13:44:11.039Z,4036
2016-11-15T13:45:11.304Z,3960
2016-11-15T13:46:10.964Z,3936
2016-11-15T13:47:10.927Z,3908
2016-11-15T13:48:11.188Z,3832
2016-11-15T13:49:10.554Z,3716
2016-11-15T13:50:11.115Z,3636
2016-11-15T13:51:10.767Z,3644
2016-11-15T13:52:10.736Z,3752
2016-11-15T13:53:10.998Z,3904